Time;durP1;ratioP1;P1;durP2;ratioP2;P2;SDS_P1;SDS_P2;PMS_P1;PMS_P2;Temp;Humidity;BMP_temperature;BMP_pressure;BME280_temperature;BME280_humidity;BME280_pressure;Samples;Min_cycle;Max_cycle;Signal;HPM_P1;HPM_P2
2023/01/06 00:01:16;;;;;;;4.80;3.90;;;8.30;99.90;;;;;;4991394;28;20263;-33
2023/01/06 00:03:42;;;;;;;3.70;3.30;;;8.30;99.90;;;;;;4974031;28;20212;-31
2023/01/06 00:06:10;;;;;;;3.90;3.50;;;8.30;99.90;;;;;;4973954;28;20312;-31
2023/01/06 00:08:36;;;;;;;4.57;3.67;;;8.30;99.90;;;;;;4973703;28;20208;-30
2023/01/06 00:11:07;;;;;;;4.10;3.57;;;8.20;99.90;;;;;;4973851;28;20182;-31
2023/01/06 00:13:33;;;;;;;4.13;3.73;;;8.20;99.90;;;;;;4973926;28;20251;-32
2023/01/06 00:16:13;;;;;;;5.20;3.43;;;8.20;99.90;;;;;;4957601;28;20322;-31
2023/01/06 00:18:39;;;;;;;4.60;2.90;;;8.10;99.90;;;;;;4991253;28;20214;-31
2023/01/06 00:21:06;;;;;;;3.67;2.90;;;8.10;99.90;;;;;;4991148;28;20187;-31
2023/01/06 00:23:33;;;;;;;2.70;2.40;;;8.10;99.90;;;;;;4957849;28;20211;-31
2023/01/06 00:26:00;;;;;;;2.90;2.60;;;8.10;99.90;;;;;;4991303;28;20204;-31
2023/01/06 00:28:25;;;;;;;3.10;2.63;;;8.20;99.90;;;;;;4991182;28;20199;-31
2023/01/06 00:30:51;;;;;;;3.10;2.67;;;8.20;99.90;;;;;;4957215;28;20172;-32
2023/01/06 00:33:17;;;;;;;5.60;3.03;;;8.20;99.90;;;;;;4973879;28;20637;-31
2023/01/06 00:35:43;;;;;;;4.77;3.40;;;8.30;99.90;;;;;;4973828;28;20188;-31
2023/01/06 00:38:09;;;;;;;3.90;3.40;;;8.30;99.90;;;;;;4973493;28;20200;-31
2023/01/06 00:40:36;;;;;;;3.77;3.17;;;8.40;99.90;;;;;;4973481;28;20176;-32
2023/01/06 00:43:03;;;;;;;3.30;3.00;;;8.40;99.90;;;;;;4973533;28;20779;-32
2023/01/06 00:45:29;;;;;;;3.00;2.70;;;8.40;99.90;;;;;;4973639;28;20172;-31
2023/01/06 00:47:55;;;;;;;4.80;3.33;;;8.40;99.90;;;;;;4973405;28;20208;-31
2023/01/06 00:50:21;;;;;;;3.93;3.43;;;8.40;99.90;;;;;;4956705;28;20238;-33
2023/01/06 00:52:50;;;;;;;4.83;3.00;;;8.40;99.90;;;;;;4989616;28;20191;-31
2023/01/06 00:55:16;;;;;;;3.77;2.63;;;8.40;99.90;;;;;;4957568;28;20641;-31
2023/01/06 00:57:42;;;;;;;3.67;3.10;;;8.40;99.90;;;;;;4957391;28;20187;-30
2023/01/06 01:00:08;;;;;;;4.10;2.67;;;8.40;99.90;;;;;;4973291;28;20207;-31
2023/01/06 01:02:34;;;;;;;3.47;3.13;;;8.40;99.90;;;;;;4973628;28;20629;-30
2023/01/06 01:05:00;;;;;;;3.50;2.60;;;8.40;99.90;;;;;;4973248;28;20185;-31
2023/01/06 01:07:26;;;;;;;3.33;3.03;;;8.40;99.90;;;;;;4989252;28;20211;-31
2023/01/06 01:09:52;;;;;;;3.53;3.17;;;8.40;99.90;;;;;;4973094;28;20263;-31
2023/01/06 01:12:19;;;;;;;4.63;3.03;;;8.40;99.90;;;;;;4973439;28;20187;-31
2023/01/06 01:14:50;;;;;;;4.00;3.00;;;8.40;99.90;;;;;;4973344;28;20184;-32
2023/01/06 01:17:36;;;;;;;3.60;2.73;;;8.40;99.90;;;;;;4973673;28;20399;-32
2023/01/06 01:20:02;;;;;;;3.27;2.83;;;8.40;99.90;;;;;;4972866;28;20212;-32
2023/01/06 01:22:29;;;;;;;3.47;2.80;;;8.40;99.90;;;;;;4990772;28;20191;-30
2023/01/06 01:24:55;;;;;;;3.17;2.50;;;8.40;99.90;;;;;;4973317;28;20191;-31
2023/01/06 01:27:21;;;;;;;3.10;2.47;;;8.40;99.90;;;;;;4973476;28;20212;-33
2023/01/06 01:29:46;;;;;;;3.13;2.80;;;8.40;99.90;;;;;;4989203;28;20258;-31
2023/01/06 01:32:12;;;;;;;5.23;3.40;;;8.40;99.90;;;;;;4974797;28;20176;-30
2023/01/06 01:34:38;;;;;;;4.67;3.37;;;8.40;99.90;;;;;;4960556;28;20180;-32
2023/01/06 01:37:04;;;;;;;3.63;3.00;;;8.40;99.90;;;;;;4976440;28;20188;-31
2023/01/06 01:39:30;;;;;;;4.93;3.47;;;8.40;99.90;;;;;;4960042;28;20207;-31
2023/01/06 01:41:57;;;;;;;4.17;3.37;;;8.40;99.90;;;;;;4976702;28;20272;-31
2023/01/06 01:44:51;;;;;;;4.33;3.60;;;8.40;99.90;;;;;;4960504;28;20176;-31
2023/01/06 01:47:43;;;;;;;5.70;4.57;;;8.40;99.90;;;;;;4993840;28;20219;-31
2023/01/06 01:50:44;;;;;;;6.47;3.67;;;8.30;99.90;;;;;;4976106;28;20192;-31
2023/01/06 01:53:16;;;;;;;6.30;4.07;;;8.30;99.90;;;;;;4962437;28;20274;-31
2023/01/06 01:55:42;;;;;;;3.73;3.30;;;8.30;99.90;;;;;;4993721;28;20183;-31
2023/01/06 01:58:38;;;;;;;3.70;3.33;;;8.30;99.90;;;;;;4976021;28;20211;-31
2023/01/06 02:01:07;;;;;;;3.93;3.10;;;8.30;99.90;;;;;;4993632;28;20186;-30
2023/01/06 02:03:35;;;;;;;4.90;3.33;;;8.30;99.90;;;;;;4976055;28;20183;-31
2023/01/06 02:06:04;;;;;;;4.50;3.50;;;8.30;99.90;;;;;;4992986;28;20231;-31
2023/01/06 02:08:41;;;;;;;5.03;3.40;;;8.40;99.90;;;;;;4975447;28;20247;-30
2023/01/06 02:11:08;;;;;;;3.70;3.00;;;8.40;99.90;;;;;;4975966;28;20187;-30
2023/01/06 02:13:36;;;;;;;3.23;2.90;;;8.40;99.90;;;;;;4975938;28;20202;-31
2023/01/06 02:16:12;;;;;;;4.47;3.10;;;8.40;99.90;;;;;;4960022;28;20184;-31
2023/01/06 02:18:53;;;;;;;3.30;2.70;;;8.30;99.90;;;;;;4975629;28;20199;-33
2023/01/06 02:22:01;;;;;;;4.40;4.00;;;8.20;99.90;;;;;;4993336;28;20179;-30
2023/01/06 02:24:55;;;;;;;3.30;3.00;;;8.20;99.90;;;;;;4975680;28;20188;-30
2023/01/06 02:27:48;;;;;;;3.20;2.90;;;8.20;99.90;;;;;;4975329;28;20215;-32
2023/01/06 02:30:33;;;;;;;4.80;3.13;;;8.20;99.90;;;;;;4993223;28;20176;-30
2023/01/06 02:33:21;;;;;;;3.73;2.90;;;8.20;99.90;;;;;;4975650;28;20180;-31
2023/01/06 02:36:10;;;;;;;3.20;2.67;;;8.20;99.90;;;;;;4959270;28;20719;-30
2023/01/06 02:38:56;;;;;;;3.90;2.50;;;8.20;99.90;;;;;;4965981;28;20215;-32
2023/01/06 02:41:43;;;;;;;4.47;2.77;;;8.20;99.90;;;;;;4975328;28;20222;-32
2023/01/06 02:44:30;;;;;;;4.00;2.83;;;8.20;99.90;;;;;;4974769;28;20188;-31
2023/01/06 02:47:30;;;;;;;2.97;2.40;;;8.20;99.90;;;;;;4975292;28;20222;-31
2023/01/06 02:50:41;;;;;;;3.47;2.70;;;8.20;99.90;;;;;;4975407;28;20215;-32
2023/01/06 02:53:28;;;;;;;3.33;2.70;;;8.20;99.90;;;;;;4945771;28;20187;-31
2023/01/06 02:55:56;;;;;;;3.00;2.67;;;8.10;99.90;;;;;;4992761;28;20187;-30
2023/01/06 02:58:24;;;;;;;3.93;3.07;;;8.10;99.90;;;;;;4975122;28;20857;-31
2023/01/06 03:01:06;;;;;;;3.10;2.80;;;8.10;99.90;;;;;;4958610;28;20230;-31
2023/01/06 03:03:36;;;;;;;3.73;3.40;;;8.00;99.90;;;;;;4974697;28;20223;-31
2023/01/06 03:06:07;;;;;;;3.90;3.20;;;8.00;99.90;;;;;;4974933;28;20179;-30
2023/01/06 03:08:35;;;;;;;3.40;2.80;;;7.90;99.90;;;;;;4974783;28;20203;-31
2023/01/06 03:11:03;;;;;;;4.67;3.00;;;7.90;99.90;;;;;;4991898;28;20184;-31
2023/01/06 03:13:44;;;;;;;2.97;2.67;;;7.80;99.90;;;;;;4959132;28;20180;-31
2023/01/06 03:16:11;;;;;;;4.07;2.77;;;7.70;99.90;;;;;;4974561;28;20186;-31
2023/01/06 03:18:38;;;;;;;3.13;2.77;;;7.70;99.90;;;;;;4958744;28;20227;-32
2023/01/06 03:21:12;;;;;;;3.33;2.90;;;7.60;99.90;;;;;;4974396;28;20194;-32
2023/01/06 03:23:39;;;;;;;3.97;3.13;;;7.60;99.90;;;;;;4958230;28;20191;-32
2023/01/06 03:26:07;;;;;;;3.43;3.13;;;7.50;99.90;;;;;;4958663;28;20271;-31
2023/01/06 03:28:33;;;;;;;3.57;3.00;;;7.40;99.90;;;;;;4992153;28;20237;-32
2023/01/06 03:31:18;;;;;;;3.90;3.10;;;7.40;99.90;;;;;;4958339;28;20186;-31
2023/01/06 03:34:02;;;;;;;3.20;2.90;;;7.20;99.90;;;;;;4990315;28;20210;-31
2023/01/06 03:36:44;;;;;;;3.43;3.13;;;7.20;99.90;;;;;;4974240;28;20238;-32
2023/01/06 03:39:17;;;;;;;4.80;2.80;;;7.10;99.90;;;;;;4973774;28;20207;-31
2023/01/06 03:45:14;;;;;;;3.73;2.83;;;7.00;99.90;;;;;;4974321;28;20222;-32
2023/01/06 03:48:16;;;;;;;2.90;2.70;;;6.90;99.90;;;;;;4973841;28;20265;-31
2023/01/06 03:50:48;;;;;;;7.20;3.10;;;6.80;99.90;;;;;;4968644;28;20197;-31
2023/01/06 03:53:24;;;;;;;3.33;2.80;;;6.80;99.90;;;;;;4974207;28;20187;-32
2023/01/06 03:56:21;;;;;;;12.27;10.50;;;6.80;99.90;;;;;;4973668;28;20602;-33
2023/01/06 03:58:52;;;;;;;6.83;6.13;;;6.80;99.90;;;;;;4970362;28;20460;-30
2023/01/06 04:01:19;;;;;;;6.47;4.73;;;6.70;99.90;;;;;;4958131;28;20180;-32
2023/01/06 04:03:46;;;;;;;4.83;4.20;;;6.70;99.90;;;;;;4973937;28;20237;-31
2023/01/06 04:06:13;;;;;;;5.27;3.87;;;6.70;99.90;;;;;;4974116;28;20261;-32
2023/01/06 04:08:38;;;;;;;5.60;2.73;;;6.70;99.90;;;;;;4957196;28;20215;-31
2023/01/06 04:11:04;;;;;;;3.93;3.27;;;6.70;99.90;;;;;;4990031;28;20183;-31
2023/01/06 04:13:32;;;;;;;3.90;3.10;;;6.70;99.90;;;;;;4973942;28;20183;-32
2023/01/06 04:15:58;;;;;;;4.03;2.63;;;6.80;99.90;;;;;;4990156;28;20179;-33
2023/01/06 04:18:24;;;;;;;3.03;2.70;;;6.80;99.90;;;;;;4990077;28;20323;-32
2023/01/06 04:20:51;;;;;;;3.27;2.90;;;6.70;99.90;;;;;;4973480;28;20179;-31
2023/01/06 04:23:25;;;;;;;4.53;3.20;;;6.70;99.90;;;;;;4973391;28;20217;-32
2023/01/06 04:25:51;;;;;;;4.63;3.50;;;6.70;99.90;;;;;;4973827;28;20617;-31
2023/01/06 04:28:30;;;;;;;3.93;2.97;;;6.70;99.90;;;;;;4973742;28;20204;-32
2023/01/06 04:30:57;;;;;;;4.77;3.00;;;6.60;99.90;;;;;;4973446;28;20175;-31
2023/01/06 04:33:23;;;;;;;4.13;3.30;;;6.60;99.90;;;;;;4973695;28;20268;-31
2023/01/06 04:35:51;;;;;;;3.60;3.30;;;6.60;99.90;;;;;;4957700;28;20186;-32
2023/01/06 04:38:19;;;;;;;4.67;3.60;;;6.60;99.90;;;;;;4965677;28;20199;-32
2023/01/06 04:40:45;;;;;;;6.47;3.50;;;6.50;99.90;;;;;;4973417;28;20212;-32
2023/01/06 04:43:17;;;;;;;5.03;3.37;;;6.50;99.90;;;;;;4973616;28;20210;-32
2023/01/06 04:45:43;;;;;;;6.00;3.40;;;6.50;99.90;;;;;;4991317;28;20214;-31
2023/01/06 04:48:10;;;;;;;3.33;3.03;;;6.50;99.90;;;;;;4989305;28;20304;-32
2023/01/06 04:50:37;;;;;;;4.77;3.90;;;6.50;99.90;;;;;;4973388;28;20191;-31
2023/01/06 04:53:03;;;;;;;4.90;3.63;;;6.50;99.90;;;;;;4990802;28;20180;-31
2023/01/06 04:55:29;;;;;;;5.30;3.97;;;6.40;99.90;;;;;;4973987;28;20180;-32
2023/01/06 04:57:55;;;;;;;4.13;3.40;;;6.40;99.90;;;;;;4990819;28;20182;-31
2023/01/06 05:00:21;;;;;;;4.37;3.60;;;6.40;99.90;;;;;;4973506;28;20206;-32
2023/01/06 05:02:47;;;;;;;3.50;3.20;;;6.40;99.90;;;;;;4973334;28;20193;-31
2023/01/06 05:05:13;;;;;;;4.93;3.50;;;6.50;99.90;;;;;;4957525;28;20198;-32
2023/01/06 05:07:39;;;;;;;4.27;3.17;;;6.50;99.90;;;;;;4960566;28;20219;-31
2023/01/06 05:10:07;;;;;;;4.43;3.00;;;6.50;99.90;;;;;;4976799;28;20207;-32
2023/01/06 05:12:33;;;;;;;3.77;2.80;;;6.50;99.90;;;;;;4976857;28;20187;-32
2023/01/06 05:14:59;;;;;;;3.90;2.90;;;6.60;99.90;;;;;;4977093;28;20183;-32
2023/01/06 05:17:25;;;;;;;4.37;2.73;;;6.60;99.90;;;;;;4994318;28;20261;-30
2023/01/06 05:19:50;;;;;;;3.40;2.70;;;6.70;99.90;;;;;;4976757;28;20217;-31
2023/01/06 05:22:16;;;;;;;3.93;2.27;;;6.70;99.90;;;;;;4960786;28;20561;-32
2023/01/06 05:24:42;;;;;;;5.33;2.80;;;6.70;99.90;;;;;;4994437;28;20187;-31
2023/01/06 05:27:08;;;;;;;3.37;2.57;;;6.80;99.90;;;;;;4976949;28;20206;-32
2023/01/06 05:29:35;;;;;;;7.23;5.87;;;6.80;99.90;;;;;;4976228;28;20357;-33
2023/01/06 05:32:00;;;;;;;5.43;4.50;;;6.70;99.90;;;;;;4976700;28;20191;-32
2023/01/06 05:34:27;;;;;;;3.77;3.40;;;6.70;99.90;;;;;;4994301;28;20251;-31
2023/01/06 05:36:53;;;;;;;4.07;2.60;;;6.70;99.90;;;;;;4976566;28;20636;-30
2023/01/06 05:39:19;;;;;;;3.60;2.83;;;6.60;99.90;;;;;;4976216;28;20206;-31
2023/01/06 05:41:44;;;;;;;4.27;3.00;;;6.50;99.90;;;;;;4976598;28;20679;-30
2023/01/06 05:44:10;;;;;;;3.47;3.10;;;6.50;99.90;;;;;;4993981;28;20174;-32
2023/01/06 05:46:36;;;;;;;3.17;2.73;;;6.40;99.90;;;;;;4993958;28;20253;-32
2023/01/06 05:49:02;;;;;;;5.47;2.70;;;6.50;99.90;;;;;;4993494;28;20287;-32
2023/01/06 05:51:28;;;;;;;3.10;2.50;;;6.40;99.90;;;;;;4992855;28;20189;-31
2023/01/06 05:53:54;;;;;;;2.93;2.47;;;6.40;99.90;;;;;;4993722;28;20190;-32
2023/01/06 05:56:21;;;;;;;3.03;2.20;;;6.40;99.90;;;;;;4993797;28;20183;-31
2023/01/06 05:58:51;;;;;;;3.33;2.90;;;6.40;99.90;;;;;;4993574;28;20208;-31
2023/01/06 06:01:20;;;;;;;3.80;2.80;;;6.30;99.90;;;;;;4993507;28;20194;-32
2023/01/06 06:03:46;;;;;;;2.50;2.27;;;6.30;99.90;;;;;;4976166;28;20187;-31
2023/01/06 06:06:12;;;;;;;5.73;3.30;;;6.30;99.90;;;;;;4976052;28;20224;-30
2023/01/06 06:08:38;;;;;;;3.23;2.50;;;6.30;99.90;;;;;;4959233;28;20301;-31
2023/01/06 06:11:07;;;;;;;3.03;2.50;;;6.30;99.90;;;;;;4992382;28;20266;-31
2023/01/06 06:13:32;;;;;;;4.33;2.30;;;6.40;99.90;;;;;;4993701;28;20174;-32
2023/01/06 06:16:07;;;;;;;3.07;2.30;;;6.40;99.90;;;;;;4993341;28;20177;-31
2023/01/06 06:18:35;;;;;;;3.37;2.53;;;6.40;99.90;;;;;;4974994;28;20204;-33
2023/01/06 06:21:02;;;;;;;4.70;2.17;;;6.40;99.90;;;;;;4975692;28;20181;-32
2023/01/06 06:23:29;;;;;;;3.50;2.10;;;6.40;99.90;;;;;;4993184;28;20183;-31
2023/01/06 06:25:55;;;;;;;3.37;2.10;;;6.40;99.90;;;;;;4993208;28;20173;-32
2023/01/06 06:28:21;;;;;;;2.17;1.97;;;6.40;99.90;;;;;;4993090;28;20202;-32
2023/01/06 06:30:46;;;;;;;2.33;1.80;;;6.50;99.90;;;;;;4992843;28;20179;-30
2023/01/06 06:33:12;;;;;;;2.93;2.10;;;6.50;99.90;;;;;;4993229;28;20177;-32
2023/01/06 06:35:38;;;;;;;3.57;2.37;;;6.60;99.90;;;;;;4991459;28;20186;-31
2023/01/06 06:38:04;;;;;;;2.53;2.13;;;6.60;99.90;;;;;;4975324;28;20263;-31
2023/01/06 06:40:29;;;;;;;2.53;1.80;;;6.70;99.90;;;;;;4959131;28;20645;-32
2023/01/06 06:42:56;;;;;;;1.87;1.60;;;6.70;99.90;;;;;;4991676;28;20189;-31
2023/01/06 06:45:22;;;;;;;3.03;1.90;;;6.70;99.90;;;;;;4975433;28;20183;-31
2023/01/06 06:47:52;;;;;;;2.73;1.77;;;6.70;99.90;;;;;;4975138;28;20218;-32
2023/01/06 06:50:17;;;;;;;1.90;1.60;;;6.80;99.90;;;;;;4974519;28;20203;-30
2023/01/06 06:52:43;;;;;;;1.60;1.50;;;6.80;99.90;;;;;;4993118;28;20188;-31
2023/01/06 06:55:09;;;;;;;2.10;1.87;;;6.90;99.90;;;;;;4992747;28;20184;-32
2023/01/06 06:57:35;;;;;;;2.83;1.70;;;6.90;99.90;;;;;;4992717;28;20243;-31
2023/01/06 07:00:01;;;;;;;2.90;2.10;;;6.90;99.90;;;;;;4974796;28;20239;-32
2023/01/06 07:02:26;;;;;;;3.00;1.80;;;6.90;99.90;;;;;;4974957;28;20202;-31
2023/01/06 07:04:52;;;;;;;4.73;3.00;;;6.90;99.90;;;;;;4974916;28;20183;-33
2023/01/06 07:07:18;;;;;;;2.90;2.30;;;6.90;99.90;;;;;;4992629;28;20258;-33
2023/01/06 07:09:43;;;;;;;2.33;2.00;;;6.90;99.90;;;;;;4958489;28;20203;-31
2023/01/06 07:12:09;;;;;;;4.13;2.30;;;6.90;99.90;;;;;;4990928;28;20211;-33
2023/01/06 07:14:35;;;;;;;2.97;2.30;;;6.90;99.90;;;;;;4958415;28;20183;-31
2023/01/06 07:17:01;;;;;;;3.43;1.90;;;6.90;99.90;;;;;;4974790;28;20190;-31
2023/01/06 07:19:27;;;;;;;3.60;2.40;;;6.90;99.90;;;;;;4974336;28;20234;-32
2023/01/06 07:21:52;;;;;;;5.23;2.23;;;7.00;99.90;;;;;;4990820;28;20195;-32
2023/01/06 07:24:18;;;;;;;2.60;2.17;;;7.00;99.90;;;;;;4958518;28;20184;-32
2023/01/06 07:26:44;;;;;;;2.87;2.13;;;7.00;99.90;;;;;;4990693;28;20206;-31
2023/01/06 07:29:10;;;;;;;2.77;1.90;;;7.00;99.90;;;;;;4989871;28;20264;-31
2023/01/06 07:31:35;;;;;;;2.10;1.90;;;7.00;99.90;;;;;;4991992;28;20179;-31
2023/01/06 07:34:01;;;;;;;2.50;2.30;;;7.00;99.90;;;;;;4958459;28;20218;-32
2023/01/06 07:36:27;;;;;;;3.80;2.60;;;7.00;99.90;;;;;;4960780;28;20201;-31
2023/01/06 07:38:53;;;;;;;2.90;2.60;;;7.00;99.90;;;;;;4974122;28;20203;-31
2023/01/06 07:41:19;;;;;;;4.47;3.13;;;7.00;99.90;;;;;;4958111;28;20250;-33
2023/01/06 07:43:44;;;;;;;3.47;3.07;;;7.00;99.90;;;;;;4974463;28;20180;-33
2023/01/06 07:46:11;;;;;;;8.87;5.77;;;7.00;99.90;;;;;;4991765;28;20187;-32
2023/01/06 07:48:37;;;;;;;5.73;4.30;;;7.10;99.90;;;;;;4974195;28;20215;-32
2023/01/06 07:51:03;;;;;;;8.17;4.03;;;7.10;99.90;;;;;;4974080;28;20191;-33
2023/01/06 07:53:28;;;;;;;6.70;3.93;;;7.10;99.90;;;;;;4973915;28;20222;-31
2023/01/06 07:55:55;;;;;;;6.87;4.40;;;7.10;99.90;;;;;;4991686;28;20274;-31
2023/01/06 07:58:22;;;;;;;6.77;4.70;;;7.20;99.90;;;;;;4957995;28;20283;-32
2023/01/06 08:00:48;;;;;;;3.90;3.40;;;7.20;99.90;;;;;;4991377;28;20246;-31
2023/01/06 08:03:14;;;;;;;3.37;2.30;;;7.30;99.90;;;;;;4974452;28;20194;-31
2023/01/06 08:05:41;;;;;;;3.00;2.30;;;7.30;99.90;;;;;;4974142;28;20183;-32
2023/01/06 08:08:08;;;;;;;3.17;2.33;;;7.40;99.90;;;;;;4990853;28;20218;-32
2023/01/06 08:10:37;;;;;;;4.37;2.50;;;7.40;99.90;;;;;;4973782;28;20180;-31
2023/01/06 08:13:03;;;;;;;5.87;2.23;;;7.50;99.90;;;;;;4957860;28;20183;-33
2023/01/06 08:15:28;;;;;;;2.70;1.80;;;7.50;99.90;;;;;;4958038;28;20210;-32
2023/01/06 08:17:54;;;;;;;4.13;1.80;;;7.60;99.90;;;;;;4991180;28;20242;-30
2023/01/06 08:20:21;;;;;;;1.80;1.70;;;7.60;99.90;;;;;;4991162;28;20179;-30
2023/01/06 08:22:47;;;;;;;2.37;1.90;;;7.60;99.90;;;;;;4973693;28;20198;-33
2023/01/06 08:25:13;;;;;;;2.27;2.07;;;7.70;99.90;;;;;;4990854;28;20191;-32
2023/01/06 08:27:38;;;;;;;2.50;2.10;;;7.70;99.90;;;;;;4990028;28;20257;-32
2023/01/06 08:30:05;;;;;;;2.80;2.57;;;7.70;99.90;;;;;;4989696;28;20295;-31
2023/01/06 08:32:31;;;;;;;2.40;2.20;;;7.70;99.90;;;;;;4973834;28;20172;-31
2023/01/06 08:34:56;;;;;;;2.40;2.20;;;7.80;99.90;;;;;;4973955;28;20172;-32
2023/01/06 08:37:22;;;;;;;5.60;2.70;;;7.70;99.90;;;;;;4991057;28;20271;-32
2023/01/06 08:39:48;;;;;;;3.10;2.50;;;7.80;99.90;;;;;;4973094;28;20263;-32
2023/01/06 08:42:14;;;;;;;4.37;2.90;;;7.80;99.90;;;;;;4993342;28;20179;-31
2023/01/06 08:44:40;;;;;;;3.53;2.87;;;7.80;99.90;;;;;;4977521;28;20191;-31
2023/01/06 08:47:05;;;;;;;4.17;2.73;;;7.90;99.90;;;;;;4961549;28;20215;-31
2023/01/06 08:49:31;;;;;;;3.97;3.40;;;7.90;99.90;;;;;;4977762;28;20219;-31
2023/01/06 08:51:57;;;;;;;4.13;3.03;;;7.90;99.90;;;;;;4994898;28;20176;-31
2023/01/06 08:54:23;;;;;;;5.07;3.47;;;7.90;99.90;;;;;;4993651;28;20186;-32
2023/01/06 08:56:49;;;;;;;4.27;3.43;;;8.00;99.90;;;;;;4961208;28;20211;-32
2023/01/06 08:59:16;;;;;;;5.40;4.23;;;8.00;99.90;;;;;;4994531;28;20204;-30
2023/01/06 09:01:43;;;;;;;6.70;5.47;;;8.00;99.90;;;;;;4977215;28;20188;-32
2023/01/06 09:04:09;;;;;;;5.53;4.53;;;8.00;99.90;;;;;;4977136;28;20192;-32
2023/01/06 09:06:36;;;;;;;4.50;4.03;;;8.10;99.90;;;;;;4977061;28;20269;-31
2023/01/06 09:09:03;;;;;;;5.70;3.60;;;8.10;99.90;;;;;;4994155;28;20188;-31
2023/01/06 09:11:29;;;;;;;4.13;3.50;;;8.20;99.90;;;;;;4994623;28;20188;-32
2023/01/06 09:13:55;;;;;;;3.43;2.60;;;8.20;99.90;;;;;;4976940;28;20234;-32
2023/01/06 09:16:21;;;;;;;5.13;3.37;;;8.20;99.90;;;;;;4960790;28;20195;-31
2023/01/06 09:18:48;;;;;;;10.70;5.03;;;8.20;99.90;;;;;;4994608;28;20215;-32
2023/01/06 09:21:16;;;;;;;8.60;5.47;;;8.20;99.90;;;;;;4994390;28;20192;-31
2023/01/06 09:23:42;;;;;;;6.97;5.30;;;8.20;99.90;;;;;;4977366;28;20176;-31
2023/01/06 09:26:08;;;;;;;4.87;3.60;;;8.30;99.90;;;;;;4993077;28;20234;-31
2023/01/06 09:28:34;;;;;;;5.93;4.73;;;8.30;99.90;;;;;;4976251;28;20235;-31
2023/01/06 09:31:00;;;;;;;7.77;6.00;;;8.40;99.90;;;;;;4992688;28;20207;-31
2023/01/06 09:33:26;;;;;;;4.70;3.93;;;8.40;99.90;;;;;;4960518;28;20180;-31
2023/01/06 09:35:52;;;;;;;4.53;3.90;;;8.50;99.90;;;;;;4976757;28;20176;-33
2023/01/06 09:38:17;;;;;;;2.93;2.63;;;8.50;99.90;;;;;;4976495;28;20196;-31
2023/01/06 09:40:46;;;;;;;3.60;2.97;;;8.60;99.90;;;;;;4974413;28;20212;-32
2023/01/06 09:43:18;;;;;;;6.67;3.20;;;8.60;99.90;;;;;;4956971;28;20200;-33
2023/01/06 09:45:55;;;;;;;5.33;4.37;;;8.70;99.90;;;;;;4956904;28;20191;-33
2023/01/06 09:48:27;;;;;;;5.60;3.90;;;8.70;99.90;;;;;;4972621;28;20231;-32
2023/01/06 09:50:58;;;;;;;4.53;3.60;;;8.80;99.90;;;;;;4973019;28;20208;-31
2023/01/06 09:53:26;;;;;;;4.20;3.23;;;8.80;99.90;;;;;;4972065;28;20191;-31
2023/01/06 09:55:59;;;;;;;3.57;3.27;;;8.90;99.90;;;;;;4957017;28;20185;-31
2023/01/06 09:58:37;;;;;;;3.43;3.03;;;8.90;99.90;;;;;;4956852;28;20685;-31
2023/01/06 10:01:15;;;;;;;4.53;3.10;;;9.00;99.90;;;;;;4956655;28;20204;-33
2023/01/06 10:03:46;;;;;;;3.70;3.10;;;9.10;99.90;;;;;;4974333;28;20259;-33
2023/01/06 10:06:33;;;;;;;3.67;3.30;;;9.20;99.90;;;;;;4975743;28;20181;-31
2023/01/06 10:09:36;;;;;;;3.90;3.30;;;9.20;99.90;;;;;;4987039;28;20242;-32
2023/01/06 10:12:36;;;;;;;4.70;3.50;;;9.30;99.90;;;;;;4976345;28;20184;-32
2023/01/06 10:15:17;;;;;;;4.13;2.80;;;9.30;99.90;;;;;;4977547;28;20176;-32
2023/01/06 10:17:52;;;;;;;3.77;3.17;;;9.40;99.90;;;;;;4976242;28;20184;-31
2023/01/06 10:20:39;;;;;;;1.27;1.10;;;9.60;99.90;;;;;;4992694;28;20189;-31
2023/01/06 10:23:23;;;;;;;1.30;1.20;;;9.70;99.90;;;;;;4993673;28;20180;-31
2023/01/06 10:25:51;;;;;;;1.37;1.27;;;9.80;99.90;;;;;;4975850;28;20260;-31
2023/01/06 10:28:29;;;;;;;2.70;1.20;;;9.90;99.90;;;;;;4992980;28;20214;-32
2023/01/06 10:31:01;;;;;;;1.23;1.13;;;10.10;99.90;;;;;;4975425;28;20183;-31
2023/01/06 10:33:30;;;;;;;1.27;1.00;;;10.20;99.90;;;;;;4975711;28;20184;-31
2023/01/06 10:35:58;;;;;;;2.40;2.13;;;10.40;99.90;;;;;;4975558;28;20191;-32
2023/01/06 10:38:39;;;;;;;1.40;1.10;;;10.40;99.90;;;;;;4975373;28;20235;-32
2023/01/06 10:41:11;;;;;;;0.80;0.70;;;10.40;99.90;;;;;;4992788;28;20183;-30
2023/01/06 10:43:36;;;;;;;1.43;1.23;;;10.50;99.90;;;;;;4975932;28;20216;-31
2023/01/06 10:46:02;;;;;;;2.67;1.40;;;10.50;99.90;;;;;;4978323;28;20213;-31
2023/01/06 10:48:30;;;;;;;1.10;1.00;;;10.50;99.90;;;;;;4992448;28;20243;-32
2023/01/06 10:50:56;;;;;;;1.80;1.50;;;10.40;99.90;;;;;;4974993;28;20187;-31
2023/01/06 10:53:22;;;;;;;3.03;1.40;;;10.40;99.90;;;;;;4975029;28;20734;-30
2023/01/06 10:55:59;;;;;;;3.37;2.70;;;10.40;99.90;;;;;;4959152;28;20276;-30
2023/01/06 10:58:36;;;;;;;3.57;2.30;;;10.30;99.90;;;;;;4975123;28;20209;-31
2023/01/06 11:01:15;;;;;;;3.17;2.57;;;10.30;99.90;;;;;;4959202;28;20203;-32
2023/01/06 11:03:43;;;;;;;3.37;1.80;;;10.30;99.90;;;;;;4992513;28;20195;-32
2023/01/06 11:06:27;;;;;;;4.77;3.03;;;10.30;99.90;;;;;;4992658;28;20182;-31
2023/01/06 11:08:54;;;;;;;3.80;3.00;;;10.30;99.90;;;;;;4960068;28;20205;-31
2023/01/06 11:11:22;;;;;;;2.50;1.70;;;10.40;99.90;;;;;;4975022;28;20200;-30
2023/01/06 11:13:54;;;;;;;1.77;1.13;;;10.40;99.90;;;;;;4992206;28;20173;-31
2023/01/06 11:16:35;;;;;;;1.13;1.00;;;10.50;99.90;;;;;;4992272;28;20188;-32
2023/01/06 11:19:07;;;;;;;1.33;1.07;;;10.50;99.90;;;;;;4974303;28;20304;-31
2023/01/06 11:21:46;;;;;;;1.33;1.03;;;10.50;99.90;;;;;;4974681;28;20266;-33
2023/01/06 11:24:21;;;;;;;1.97;1.03;;;10.60;99.90;;;;;;4958531;28;20230;-31
2023/01/06 11:26:53;;;;;;;3.13;1.50;;;10.60;99.90;;;;;;4958498;28;20203;-31
2023/01/06 11:29:39;;;;;;;1.20;0.87;;;10.60;99.90;;;;;;4974331;28;20205;-31
2023/01/06 11:32:23;;;;;;;1.73;1.10;;;10.50;99.90;;;;;;4991481;28;20227;-31
2023/01/06 11:35:02;;;;;;;3.63;1.63;;;10.50;99.90;;;;;;4975734;28;20255;-33
2023/01/06 11:37:40;;;;;;;1.00;0.90;;;10.50;99.90;;;;;;4991699;28;20186;-32
2023/01/06 11:40:23;;;;;;;3.50;1.30;;;10.50;99.90;;;;;;4991522;28;20243;-32
2023/01/06 11:42:52;;;;;;;2.40;0.90;;;10.50;99.90;;;;;;4986451;28;20184;-31
2023/01/06 11:45:51;;;;;;;0.97;0.90;;;10.40;99.90;;;;;;5006883;28;20192;-31
2023/01/06 11:48:18;;;;;;;1.20;0.80;;;10.40;99.90;;;;;;4976574;28;20248;-32
2023/01/06 11:50:59;;;;;;;1.43;1.00;;;10.40;99.90;;;;;;4991645;28;20187;-32
2023/01/06 11:53:26;;;;;;;1.80;1.17;;;10.40;99.90;;;;;;4992051;28;20179;-31
2023/01/06 11:56:18;;;;;;;1.60;1.20;;;10.40;99.90;;;;;;4973904;28;20199;-31
2023/01/06 11:59:07;;;;;;;0.83;0.83;;;10.40;99.90;;;;;;4973745;28;20218;-31
2023/01/06 12:01:46;;;;;;;1.53;0.83;;;10.30;99.90;;;;;;4974013;28;20210;-32
2023/01/06 12:04:30;;;;;;;0.80;0.67;;;10.40;99.90;;;;;;4991776;28;20245;-31
2023/01/06 12:07:22;;;;;;;1.33;0.80;;;10.30;99.90;;;;;;4957486;28;20665;-32
2023/01/06 12:09:50;;;;;;;1.20;0.90;;;10.30;99.90;;;;;;4950737;28;20234;-32
2023/01/06 12:12:22;;;;;;;2.93;1.43;;;10.30;99.90;;;;;;4958123;28;20186;-33
2023/01/06 12:14:48;;;;;;;1.20;0.90;;;10.30;99.90;;;;;;4974214;28;20210;-33
2023/01/06 12:17:32;;;;;;;0.60;0.60;;;10.30;99.90;;;;;;4973222;28;20193;-32
2023/01/06 12:20:06;;;;;;;0.70;0.70;;;10.40;99.90;;;;;;4991158;28;20244;-32
2023/01/06 12:22:45;;;;;;;1.23;0.70;;;10.40;99.90;;;;;;4974073;28;20260;-31
2023/01/06 12:25:23;;;;;;;1.00;0.90;;;10.40;99.90;;;;;;4991373;28;20212;-32
2023/01/06 12:28:06;;;;;;;1.83;1.10;;;10.40;99.90;;;;;;4973583;28;20242;-31
2023/01/06 12:31:08;;;;;;;1.13;1.03;;;10.50;99.90;;;;;;4991332;28;20199;-31
2023/01/06 12:33:48;;;;;;;1.67;0.93;;;10.50;99.90;;;;;;4989580;28;20201;-31
2023/01/06 12:36:36;;;;;;;0.97;0.60;;;10.50;99.90;;;;;;4973804;28;20184;-31
2023/01/06 12:39:10;;;;;;;1.33;0.93;;;10.50;99.90;;;;;;4986491;28;20204;-33
2023/01/06 12:41:53;;;;;;;1.77;1.07;;;10.50;99.90;;;;;;4973785;28;20188;-33
2023/01/06 12:44:46;;;;;;;1.27;0.90;;;10.60;99.90;;;;;;4998857;28;20328;-31
2023/01/06 12:47:21;;;;;;;1.47;0.90;;;10.60;99.90;;;;;;4973681;28;20208;-31
2023/01/06 12:50:05;;;;;;;1.90;0.80;;;10.60;99.90;;;;;;4973605;28;20215;-32
2023/01/06 12:52:47;;;;;;;1.87;0.90;;;10.70;99.90;;;;;;4991404;28;20216;-32
2023/01/06 12:55:17;;;;;;;0.87;0.70;;;10.70;99.90;;;;;;4973604;28;20275;-31
2023/01/06 12:58:02;;;;;;;0.97;0.80;;;10.70;99.90;;;;;;4973597;28;20276;-32
2023/01/06 13:00:39;;;;;;;0.77;0.77;;;10.70;99.90;;;;;;4990551;28;20643;-32
2023/01/06 13:03:43;;;;;;;1.20;0.83;;;10.70;99.90;;;;;;4990882;28;20188;-31
2023/01/06 13:06:24;;;;;;;0.97;0.63;;;10.80;99.90;;;;;;4973479;28;20304;-31
2023/01/06 13:09:01;;;;;;;1.07;0.80;;;10.70;99.90;;;;;;4982157;28;20259;-31
2023/01/06 13:12:01;;;;;;;1.00;0.90;;;10.70;99.90;;;;;;4973523;28;20232;-31
2023/01/06 13:14:37;;;;;;;0.70;0.70;;;10.70;99.90;;;;;;4990901;28;20181;-31
2023/01/06 13:17:16;;;;;;;1.70;0.90;;;10.70;99.90;;;;;;4957235;28;20188;-31
2023/01/06 13:19:42;;;;;;;1.73;1.00;;;10.60;99.90;;;;;;4973049;28;20248;-31
2023/01/06 13:22:13;;;;;;;1.10;0.80;;;10.60;99.90;;;;;;4973341;28;20176;-32